sensor_id;sensor_type;location;lat;lon;timestamp;P1;durP1;ratioP1;P2;durP2;ratioP2
30466;SDS011;17258;52.560;13.046;2023-08-08T00:05:42;2.60;;;1.60;;
30466;SDS011;17258;52.560;13.046;2023-08-08T00:15:43;1.65;;;1.42;;
30466;SDS011;17258;52.560;13.046;2023-08-08T00:25:44;6.15;;;1.85;;
30466;SDS011;17258;52.560;13.046;2023-08-08T00:35:49;2.65;;;1.92;;
30466;SDS011;17258;52.560;13.046;2023-08-08T00:46:00;1.70;;;1.57;;
30466;SDS011;17258;52.560;13.046;2023-08-08T00:56:00;2.13;;;1.67;;
30466;SDS011;17258;52.560;13.046;2023-08-08T01:16:34;1.50;;;1.40;;
30466;SDS011;17258;52.560;13.046;2023-08-08T01:26:35;1.55;;;1.35;;
30466;SDS011;17258;52.560;13.046;2023-08-08T01:36:45;1.73;;;1.02;;
30466;SDS011;17258;52.560;13.046;2023-08-08T01:46:57;2.80;;;1.10;;
30466;SDS011;17258;52.560;13.046;2023-08-08T01:56:58;4.45;;;1.20;;
30466;SDS011;17258;52.560;13.046;2023-08-08T02:06:59;3.00;;;1.40;;
30466;SDS011;17258;52.560;13.046;2023-08-08T02:17:00;1.80;;;1.23;;
30466;SDS011;17258;52.560;13.046;2023-08-08T02:27:00;1.17;;;1.10;;
30466;SDS011;17258;52.560;13.046;2023-08-08T02:37:01;1.50;;;1.20;;
30466;SDS011;17258;52.560;13.046;2023-08-08T02:47:02;2.15;;;1.25;;
30466;SDS011;17258;52.560;13.046;2023-08-08T02:57:03;1.67;;;1.20;;
30466;SDS011;17258;52.560;13.046;2023-08-08T03:07:04;2.35;;;1.50;;
30466;SDS011;17258;52.560;13.046;2023-08-08T03:17:05;2.58;;;1.40;;
30466;SDS011;17258;52.560;13.046;2023-08-08T03:27:05;2.33;;;1.45;;
30466;SDS011;17258;52.560;13.046;2023-08-08T03:37:06;3.60;;;1.90;;
30466;SDS011;17258;52.560;13.046;2023-08-08T03:47:07;1.87;;;1.50;;
30466;SDS011;17258;52.560;13.046;2023-08-08T03:57:07;5.57;;;1.50;;
30466;SDS011;17258;52.560;13.046;2023-08-08T04:07:08;1.53;;;1.17;;
30466;SDS011;17258;52.560;13.046;2023-08-08T04:17:09;3.33;;;1.37;;
30466;SDS011;17258;52.560;13.046;2023-08-08T04:27:09;1.80;;;1.13;;
30466;SDS011;17258;52.560;13.046;2023-08-08T04:37:10;2.07;;;1.50;;
30466;SDS011;17258;52.560;13.046;2023-08-08T04:47:11;1.33;;;1.23;;
30466;SDS011;17258;52.560;13.046;2023-08-08T04:57:11;1.50;;;1.40;;
30466;SDS011;17258;52.560;13.046;2023-08-08T05:07:12;2.27;;;1.57;;
30466;SDS011;17258;52.560;13.046;2023-08-08T05:17:12;2.13;;;1.80;;
30466;SDS011;17258;52.560;13.046;2023-08-08T05:27:13;3.60;;;1.53;;
30466;SDS011;17258;52.560;13.046;2023-08-08T05:37:14;2.20;;;1.80;;
30466;SDS011;17258;52.560;13.046;2023-08-08T05:47:15;2.33;;;1.67;;
30466;SDS011;17258;52.560;13.046;2023-08-08T05:57:15;1.83;;;1.70;;
30466;SDS011;17258;52.560;13.046;2023-08-08T06:07:16;1.67;;;1.30;;
30466;SDS011;17258;52.560;13.046;2023-08-08T06:17:16;1.30;;;1.20;;
30466;SDS011;17258;52.560;13.046;2023-08-08T06:27:17;2.40;;;1.60;;
30466;SDS011;17258;52.560;13.046;2023-08-08T06:37:18;3.17;;;1.87;;
30466;SDS011;17258;52.560;13.046;2023-08-08T06:47:18;1.90;;;1.40;;
30466;SDS011;17258;52.560;13.046;2023-08-08T06:57:19;3.23;;;1.60;;
30466;SDS011;17258;52.560;13.046;2023-08-08T07:07:20;7.90;;;1.90;;
30466;SDS011;17258;52.560;13.046;2023-08-08T07:17:20;2.53;;;1.80;;
30466;SDS011;17258;52.560;13.046;2023-08-08T07:27:21;2.73;;;1.77;;
30466;SDS011;17258;52.560;13.046;2023-08-08T07:37:22;3.00;;;2.80;;
30466;SDS011;17258;52.560;13.046;2023-08-08T07:47:22;16.00;;;15.10;;
30466;SDS011;17258;52.560;13.046;2023-08-08T07:57:24;13.23;;;12.53;;
30466;SDS011;17258;52.560;13.046;2023-08-08T08:07:26;1.58;;;1.48;;
30466;SDS011;17258;52.560;13.046;2023-08-08T08:17:27;2.67;;;1.67;;
30466;SDS011;17258;52.560;13.046;2023-08-08T08:27:28;2.35;;;1.42;;
30466;SDS011;17258;52.560;13.046;2023-08-08T08:37:29;2.50;;;1.53;;
30466;SDS011;17258;52.560;13.046;2023-08-08T08:47:30;2.50;;;2.17;;
30466;SDS011;17258;52.560;13.046;2023-08-08T08:57:32;16.00;;;15.10;;
30466;SDS011;17258;52.560;13.046;2023-08-08T09:07:33;16.35;;;15.35;;
30466;SDS011;17258;52.560;13.046;2023-08-08T09:17:36;16.38;;;15.27;;
30466;SDS011;17258;52.560;13.046;2023-08-08T09:27:41;12.90;;;12.00;;
30466;SDS011;17258;52.560;13.046;2023-08-08T09:37:43;9.70;;;8.95;;
30466;SDS011;17258;52.560;13.046;2023-08-08T09:47:43;12.33;;;11.63;;
30466;SDS011;17258;52.560;13.046;2023-08-08T09:57:44;5.40;;;5.10;;
30466;SDS011;17258;52.560;13.046;2023-08-08T10:07:46;13.40;;;12.70;;
30466;SDS011;17258;52.560;13.046;2023-08-08T10:17:46;12.00;;;11.10;;
30466;SDS011;17258;52.560;13.046;2023-08-08T10:28:09;13.65;;;12.75;;
30466;SDS011;17258;52.560;13.046;2023-08-08T10:38:13;11.90;;;11.15;;
30466;SDS011;17258;52.560;13.046;2023-08-08T10:48:15;12.73;;;12.02;;
30466;SDS011;17258;52.560;13.046;2023-08-08T10:58:16;13.45;;;12.65;;
30466;SDS011;17258;52.560;13.046;2023-08-08T11:08:22;14.15;;;13.35;;
30466;SDS011;17258;52.560;13.046;2023-08-08T11:18:23;13.40;;;12.60;;
30466;SDS011;17258;52.560;13.046;2023-08-08T11:28:25;14.07;;;13.15;;
30466;SDS011;17258;52.560;13.046;2023-08-08T11:38:25;12.30;;;11.70;;
30466;SDS011;17258;52.560;13.046;2023-08-08T11:48:26;12.80;;;12.00;;
30466;SDS011;17258;52.560;13.046;2023-08-08T11:58:27;14.77;;;13.93;;
30466;SDS011;17258;52.560;13.046;2023-08-08T12:08:29;14.70;;;13.80;;
30466;SDS011;17258;52.560;13.046;2023-08-08T12:18:31;15.35;;;14.38;;
30466;SDS011;17258;52.560;13.046;2023-08-08T12:28:34;15.77;;;14.80;;
30466;SDS011;17258;52.560;13.046;2023-08-08T12:38:35;16.10;;;14.85;;
30466;SDS011;17258;52.560;13.046;2023-08-08T12:48:36;14.85;;;13.95;;
30466;SDS011;17258;52.560;13.046;2023-08-08T12:58:36;15.43;;;14.53;;
30466;SDS011;17258;52.560;13.046;2023-08-08T13:08:39;15.55;;;14.52;;
30466;SDS011;17258;52.560;13.046;2023-08-08T13:18:39;16.48;;;15.40;;
30466;SDS011;17258;52.560;13.046;2023-08-08T13:28:40;12.60;;;11.90;;
30466;SDS011;17258;52.560;13.046;2023-08-08T13:38:41;5.68;;;5.20;;
30466;SDS011;17258;52.560;13.046;2023-08-08T13:48:42;4.72;;;4.53;;
30466;SDS011;17258;52.560;13.046;2023-08-08T13:58:43;4.87;;;4.67;;
30466;SDS011;17258;52.560;13.046;2023-08-08T14:08:43;5.30;;;5.00;;
30466;SDS011;17258;52.560;13.046;2023-08-08T14:18:45;7.25;;;6.85;;
30466;SDS011;17258;52.560;13.046;2023-08-08T14:28:46;8.50;;;8.00;;
30466;SDS011;17258;52.560;13.046;2023-08-08T14:38:46;1.97;;;1.87;;
30466;SDS011;17258;52.560;13.046;2023-08-08T14:48:48;1.65;;;1.58;;
30466;SDS011;17258;52.560;13.046;2023-08-08T14:58:49;6.43;;;6.13;;
30466;SDS011;17258;52.560;13.046;2023-08-08T15:08:50;2.58;;;0.63;;
30466;SDS011;17258;52.560;13.046;2023-08-08T15:18:50;7.30;;;7.00;;
30466;SDS011;17258;52.560;13.046;2023-08-08T15:28:51;2.83;;;2.73;;
30466;SDS011;17258;52.560;13.046;2023-08-08T15:38:52;6.80;;;6.47;;
30466;SDS011;17258;52.560;13.046;2023-08-08T15:48:52;8.20;;;7.80;;
30466;SDS011;17258;52.560;13.046;2023-08-08T15:58:53;1.10;;;1.10;;
30466;SDS011;17258;52.560;13.046;2023-08-08T16:08:53;1.73;;;1.10;;
30466;SDS011;17258;52.560;13.046;2023-08-08T16:18:54;2.70;;;1.00;;
30466;SDS011;17258;52.560;13.046;2023-08-08T16:28:55;0.98;;;0.90;;
30466;SDS011;17258;52.560;13.046;2023-08-08T16:38:56;0.63;;;0.63;;
30466;SDS011;17258;52.560;13.046;2023-08-08T16:48:56;0.67;;;0.67;;
30466;SDS011;17258;52.560;13.046;2023-08-08T16:58:57;0.60;;;0.60;;
30466;SDS011;17258;52.560;13.046;2023-08-08T17:08:59;0.68;;;0.68;;
30466;SDS011;17258;52.560;13.046;2023-08-08T17:18:59;0.40;;;0.40;;
30466;SDS011;17258;52.560;13.046;2023-08-08T17:29:00;0.55;;;0.55;;
30466;SDS011;17258;52.560;13.046;2023-08-08T17:39:01;0.60;;;0.60;;
30466;SDS011;17258;52.560;13.046;2023-08-08T17:49:02;0.68;;;0.68;;
30466;SDS011;17258;52.560;13.046;2023-08-08T17:59:02;0.87;;;0.83;;
30466;SDS011;17258;52.560;13.046;2023-08-08T18:09:03;0.70;;;0.70;;
30466;SDS011;17258;52.560;13.046;2023-08-08T18:19:04;0.70;;;0.70;;
30466;SDS011;17258;52.560;13.046;2023-08-08T18:29:05;0.98;;;0.77;;
30466;SDS011;17258;52.560;13.046;2023-08-08T18:39:06;0.70;;;0.70;;
30466;SDS011;17258;52.560;13.046;2023-08-08T18:49:07;0.82;;;0.80;;
30466;SDS011;17258;52.560;13.046;2023-08-08T18:59:08;0.80;;;0.80;;
30466;SDS011;17258;52.560;13.046;2023-08-08T19:09:09;0.90;;;0.70;;
30466;SDS011;17258;52.560;13.046;2023-08-08T19:19:09;0.80;;;0.80;;
30466;SDS011;17258;52.560;13.046;2023-08-08T19:29:10;1.37;;;0.87;;
30466;SDS011;17258;52.560;13.046;2023-08-08T19:39:11;0.77;;;0.57;;
30466;SDS011;17258;52.560;13.046;2023-08-08T19:49:11;0.90;;;0.90;;
30466;SDS011;17258;52.560;13.046;2023-08-08T19:59:12;3.88;;;0.80;;
30466;SDS011;17258;52.560;13.046;2023-08-08T20:09:13;0.77;;;0.70;;
30466;SDS011;17258;52.560;13.046;2023-08-08T20:19:14;2.20;;;1.15;;
30466;SDS011;17258;52.560;13.046;2023-08-08T20:29:14;0.50;;;0.50;;
30466;SDS011;17258;52.560;13.046;2023-08-08T20:39:15;1.17;;;1.10;;
30466;SDS011;17258;52.560;13.046;2023-08-08T20:49:16;0.70;;;0.70;;
30466;SDS011;17258;52.560;13.046;2023-08-08T20:59:16;0.70;;;0.70;;
30466;SDS011;17258;52.560;13.046;2023-08-08T21:09:17;0.93;;;0.77;;
30466;SDS011;17258;52.560;13.046;2023-08-08T21:19:18;0.77;;;0.77;;
30466;SDS011;17258;52.560;13.046;2023-08-08T21:29:18;0.70;;;0.70;;
30466;SDS011;17258;52.560;13.046;2023-08-08T21:39:19;0.67;;;0.67;;
30466;SDS011;17258;52.560;13.046;2023-08-08T21:49:20;0.50;;;0.50;;
30466;SDS011;17258;52.560;13.046;2023-08-08T21:59:20;1.03;;;1.03;;
30466;SDS011;17258;52.560;13.046;2023-08-08T22:09:22;0.63;;;0.63;;
30466;SDS011;17258;52.560;13.046;2023-08-08T22:19:23;0.60;;;0.60;;
30466;SDS011;17258;52.560;13.046;2023-08-08T22:29:24;0.70;;;0.60;;
30466;SDS011;17258;52.560;13.046;2023-08-08T22:39:28;1.13;;;0.80;;
30466;SDS011;17258;52.560;13.046;2023-08-08T22:49:28;1.27;;;0.60;;
30466;SDS011;17258;52.560;13.046;2023-08-08T22:59:29;0.73;;;0.70;;
30466;SDS011;17258;52.560;13.046;2023-08-08T23:09:30;0.60;;;0.60;;
30466;SDS011;17258;52.560;13.046;2023-08-08T23:19:30;2.50;;;0.85;;
30466;SDS011;17258;52.560;13.046;2023-08-08T23:29:31;0.93;;;0.77;;
30466;SDS011;17258;52.560;13.046;2023-08-08T23:39:32;0.73;;;0.73;;
30466;SDS011;17258;52.560;13.046;2023-08-08T23:49:32;1.13;;;0.73;;
30466;SDS011;17258;52.560;13.046;2023-08-08T23:59:33;1.10;;;0.80;;
